sensor_id;sensor_type;location;lat;lon;timestamp;P1;durP1;ratioP1;P2;durP2;ratioP2
15077;SDS011;7638;49.760;8.646;2023-12-22T00:01:00;0.77;;;0.43;;
15077;SDS011;7638;49.760;8.646;2023-12-22T00:03:26;1.60;;;0.57;;
15077;SDS011;7638;49.760;8.646;2023-12-22T00:05:52;0.60;;;0.60;;
15077;SDS011;7638;49.760;8.646;2023-12-22T00:08:18;0.50;;;0.50;;
15077;SDS011;7638;49.760;8.646;2023-12-22T00:10:43;2.20;;;0.60;;
15077;SDS011;7638;49.760;8.646;2023-12-22T00:13:09;0.57;;;0.57;;
15077;SDS011;7638;49.760;8.646;2023-12-22T00:15:35;1.37;;;0.50;;
15077;SDS011;7638;49.760;8.646;2023-12-22T00:18:01;1.30;;;0.50;;
15077;SDS011;7638;49.760;8.646;2023-12-22T00:20:27;0.50;;;0.50;;
15077;SDS011;7638;49.760;8.646;2023-12-22T00:22:53;0.50;;;0.50;;
15077;SDS011;7638;49.760;8.646;2023-12-22T00:25:19;1.23;;;0.30;;
15077;SDS011;7638;49.760;8.646;2023-12-22T00:27:45;0.50;;;0.50;;
15077;SDS011;7638;49.760;8.646;2023-12-22T00:30:11;0.60;;;0.40;;
15077;SDS011;7638;49.760;8.646;2023-12-22T00:32:37;0.40;;;0.40;;
15077;SDS011;7638;49.760;8.646;2023-12-22T00:35:03;0.37;;;0.37;;
15077;SDS011;7638;49.760;8.646;2023-12-22T00:37:29;0.40;;;0.40;;
15077;SDS011;7638;49.760;8.646;2023-12-22T00:39:55;0.73;;;0.50;;
15077;SDS011;7638;49.760;8.646;2023-12-22T00:42:21;0.83;;;0.40;;
15077;SDS011;7638;49.760;8.646;2023-12-22T00:44:47;2.37;;;0.50;;
15077;SDS011;7638;49.760;8.646;2023-12-22T00:47:13;0.43;;;0.43;;
15077;SDS011;7638;49.760;8.646;2023-12-22T00:49:39;0.33;;;0.33;;
15077;SDS011;7638;49.760;8.646;2023-12-22T00:52:05;0.47;;;0.47;;
15077;SDS011;7638;49.760;8.646;2023-12-22T00:54:31;0.93;;;0.43;;
15077;SDS011;7638;49.760;8.646;2023-12-22T00:56:57;0.60;;;0.60;;
15077;SDS011;7638;49.760;8.646;2023-12-22T00:59:24;0.50;;;0.50;;
15077;SDS011;7638;49.760;8.646;2023-12-22T01:01:49;0.60;;;0.60;;
15077;SDS011;7638;49.760;8.646;2023-12-22T01:04:15;1.17;;;0.97;;
15077;SDS011;7638;49.760;8.646;2023-12-22T01:06:41;0.37;;;0.37;;
15077;SDS011;7638;49.760;8.646;2023-12-22T01:09:07;0.73;;;0.73;;
15077;SDS011;7638;49.760;8.646;2023-12-22T01:11:34;0.70;;;0.37;;
15077;SDS011;7638;49.760;8.646;2023-12-22T01:14:00;0.40;;;0.40;;
15077;SDS011;7638;49.760;8.646;2023-12-22T01:16:26;0.30;;;0.30;;
15077;SDS011;7638;49.760;8.646;2023-12-22T01:18:51;0.50;;;0.47;;
15077;SDS011;7638;49.760;8.646;2023-12-22T01:21:17;0.50;;;0.50;;
15077;SDS011;7638;49.760;8.646;2023-12-22T01:23:43;1.13;;;0.43;;
15077;SDS011;7638;49.760;8.646;2023-12-22T01:26:09;1.07;;;0.60;;
15077;SDS011;7638;49.760;8.646;2023-12-22T01:28:35;5.20;;;0.60;;
15077;SDS011;7638;49.760;8.646;2023-12-22T01:31:02;1.00;;;0.43;;
15077;SDS011;7638;49.760;8.646;2023-12-22T01:33:28;0.70;;;0.53;;
15077;SDS011;7638;49.760;8.646;2023-12-22T01:35:54;0.50;;;0.50;;
15077;SDS011;7638;49.760;8.646;2023-12-22T01:38:20;0.77;;;0.47;;
15077;SDS011;7638;49.760;8.646;2023-12-22T01:40:46;0.87;;;0.40;;
15077;SDS011;7638;49.760;8.646;2023-12-22T01:43:12;1.10;;;0.43;;
15077;SDS011;7638;49.760;8.646;2023-12-22T01:45:39;0.53;;;0.53;;
15077;SDS011;7638;49.760;8.646;2023-12-22T01:48:08;1.23;;;0.40;;
15077;SDS011;7638;49.760;8.646;2023-12-22T01:50:35;0.30;;;0.30;;
15077;SDS011;7638;49.760;8.646;2023-12-22T01:53:02;0.40;;;0.40;;
15077;SDS011;7638;49.760;8.646;2023-12-22T01:55:29;3.50;;;0.50;;
15077;SDS011;7638;49.760;8.646;2023-12-22T01:57:55;2.37;;;0.50;;
15077;SDS011;7638;49.760;8.646;2023-12-22T02:00:21;0.53;;;0.53;;
15077;SDS011;7638;49.760;8.646;2023-12-22T02:02:47;2.00;;;0.67;;
15077;SDS011;7638;49.760;8.646;2023-12-22T02:05:13;1.37;;;0.67;;
15077;SDS011;7638;49.760;8.646;2023-12-22T02:07:42;1.90;;;0.60;;
15077;SDS011;7638;49.760;8.646;2023-12-22T02:10:09;0.60;;;0.60;;
15077;SDS011;7638;49.760;8.646;2023-12-22T02:12:35;0.83;;;0.60;;
15077;SDS011;7638;49.760;8.646;2023-12-22T02:15:01;0.40;;;0.40;;
15077;SDS011;7638;49.760;8.646;2023-12-22T02:17:32;1.27;;;0.50;;
15077;SDS011;7638;49.760;8.646;2023-12-22T02:19:59;3.90;;;0.50;;
15077;SDS011;7638;49.760;8.646;2023-12-22T02:22:28;1.80;;;0.40;;
15077;SDS011;7638;49.760;8.646;2023-12-22T02:24:54;0.83;;;0.83;;
15077;SDS011;7638;49.760;8.646;2023-12-22T02:27:33;2.40;;;0.87;;
15077;SDS011;7638;49.760;8.646;2023-12-22T02:32:36;0.80;;;0.57;;
15077;SDS011;7638;49.760;8.646;2023-12-22T02:35:03;5.70;;;0.60;;
15077;SDS011;7638;49.760;8.646;2023-12-22T02:37:30;4.73;;;0.80;;
15077;SDS011;7638;49.760;8.646;2023-12-22T02:39:57;0.60;;;0.60;;
15077;SDS011;7638;49.760;8.646;2023-12-22T02:42:24;5.43;;;0.57;;
15077;SDS011;7638;49.760;8.646;2023-12-22T02:44:55;0.60;;;0.60;;
15077;SDS011;7638;49.760;8.646;2023-12-22T02:47:21;0.73;;;0.60;;
15077;SDS011;7638;49.760;8.646;2023-12-22T02:49:47;1.17;;;0.63;;
15077;SDS011;7638;49.760;8.646;2023-12-22T02:52:12;1.10;;;0.77;;
15077;SDS011;7638;49.760;8.646;2023-12-22T02:54:38;0.67;;;0.53;;
15077;SDS011;7638;49.760;8.646;2023-12-22T02:57:06;0.67;;;0.63;;
15077;SDS011;7638;49.760;8.646;2023-12-22T02:59:32;2.67;;;0.70;;
15077;SDS011;7638;49.760;8.646;2023-12-22T03:01:58;1.23;;;0.90;;
15077;SDS011;7638;49.760;8.646;2023-12-22T03:04:24;1.20;;;0.50;;
15077;SDS011;7638;49.760;8.646;2023-12-22T03:06:50;0.73;;;0.73;;
15077;SDS011;7638;49.760;8.646;2023-12-22T03:09:16;1.23;;;0.77;;
15077;SDS011;7638;49.760;8.646;2023-12-22T03:11:42;1.13;;;0.73;;
15077;SDS011;7638;49.760;8.646;2023-12-22T03:14:08;1.33;;;0.97;;
15077;SDS011;7638;49.760;8.646;2023-12-22T03:16:35;1.27;;;0.73;;
15077;SDS011;7638;49.760;8.646;2023-12-22T03:19:01;0.70;;;0.70;;
15077;SDS011;7638;49.760;8.646;2023-12-22T03:21:27;1.10;;;0.83;;
15077;SDS011;7638;49.760;8.646;2023-12-22T03:23:53;1.00;;;0.83;;
15077;SDS011;7638;49.760;8.646;2023-12-22T03:26:19;2.23;;;0.70;;
15077;SDS011;7638;49.760;8.646;2023-12-22T03:28:45;0.73;;;0.63;;
15077;SDS011;7638;49.760;8.646;2023-12-22T03:31:10;1.97;;;0.90;;
15077;SDS011;7638;49.760;8.646;2023-12-22T03:33:36;1.70;;;1.07;;
15077;SDS011;7638;49.760;8.646;2023-12-22T03:36:02;5.87;;;1.07;;
15077;SDS011;7638;49.760;8.646;2023-12-22T03:38:28;1.97;;;0.77;;
15077;SDS011;7638;49.760;8.646;2023-12-22T03:40:54;6.07;;;1.37;;
15077;SDS011;7638;49.760;8.646;2023-12-22T03:43:20;4.33;;;1.97;;
15077;SDS011;7638;49.760;8.646;2023-12-22T03:45:46;1.10;;;0.70;;
15077;SDS011;7638;49.760;8.646;2023-12-22T03:48:12;2.93;;;1.10;;
15077;SDS011;7638;49.760;8.646;2023-12-22T03:50:38;0.93;;;0.63;;
15077;SDS011;7638;49.760;8.646;2023-12-22T03:53:04;1.50;;;0.77;;
15077;SDS011;7638;49.760;8.646;2023-12-22T03:55:30;0.50;;;0.50;;
15077;SDS011;7638;49.760;8.646;2023-12-22T03:57:56;4.83;;;0.70;;
15077;SDS011;7638;49.760;8.646;2023-12-22T04:00:22;3.03;;;1.10;;
15077;SDS011;7638;49.760;8.646;2023-12-22T04:02:48;2.67;;;1.17;;
15077;SDS011;7638;49.760;8.646;2023-12-22T04:05:14;0.60;;;0.60;;
15077;SDS011;7638;49.760;8.646;2023-12-22T04:07:40;2.97;;;1.00;;
15077;SDS011;7638;49.760;8.646;2023-12-22T04:10:06;2.30;;;1.20;;
15077;SDS011;7638;49.760;8.646;2023-12-22T04:12:32;1.90;;;1.10;;
15077;SDS011;7638;49.760;8.646;2023-12-22T04:14:58;5.30;;;0.90;;
15077;SDS011;7638;49.760;8.646;2023-12-22T04:17:24;6.07;;;0.80;;
15077;SDS011;7638;49.760;8.646;2023-12-22T04:19:50;4.17;;;1.07;;
15077;SDS011;7638;49.760;8.646;2023-12-22T04:22:17;2.97;;;0.67;;
15077;SDS011;7638;49.760;8.646;2023-12-22T04:24:43;3.43;;;0.60;;
15077;SDS011;7638;49.760;8.646;2023-12-22T04:27:09;1.90;;;0.60;;
15077;SDS011;7638;49.760;8.646;2023-12-22T04:29:35;0.90;;;0.80;;
15077;SDS011;7638;49.760;8.646;2023-12-22T04:32:01;0.93;;;0.60;;
15077;SDS011;7638;49.760;8.646;2023-12-22T04:34:27;0.93;;;0.50;;
15077;SDS011;7638;49.760;8.646;2023-12-22T04:36:53;6.03;;;1.17;;
15077;SDS011;7638;49.760;8.646;2023-12-22T04:39:19;3.23;;;0.80;;
15077;SDS011;7638;49.760;8.646;2023-12-22T04:41:45;5.53;;;0.67;;
15077;SDS011;7638;49.760;8.646;2023-12-22T04:44:10;2.40;;;1.07;;
15077;SDS011;7638;49.760;8.646;2023-12-22T04:46:36;1.10;;;0.57;;
15077;SDS011;7638;49.760;8.646;2023-12-22T04:49:02;0.60;;;0.60;;
15077;SDS011;7638;49.760;8.646;2023-12-22T04:51:28;3.90;;;0.70;;
15077;SDS011;7638;49.760;8.646;2023-12-22T04:53:54;2.10;;;0.80;;
15077;SDS011;7638;49.760;8.646;2023-12-22T04:56:20;0.77;;;0.70;;
15077;SDS011;7638;49.760;8.646;2023-12-22T04:58:46;1.20;;;0.70;;
15077;SDS011;7638;49.760;8.646;2023-12-22T05:01:12;0.70;;;0.60;;
15077;SDS011;7638;49.760;8.646;2023-12-22T05:03:38;3.07;;;0.80;;
15077;SDS011;7638;49.760;8.646;2023-12-22T05:06:04;0.70;;;0.50;;
15077;SDS011;7638;49.760;8.646;2023-12-22T05:08:30;1.70;;;0.90;;
15077;SDS011;7638;49.760;8.646;2023-12-22T05:10:56;1.60;;;0.63;;
15077;SDS011;7638;49.760;8.646;2023-12-22T05:13:22;0.67;;;0.67;;
15077;SDS011;7638;49.760;8.646;2023-12-22T05:15:48;2.87;;;0.70;;
15077;SDS011;7638;49.760;8.646;2023-12-22T05:18:14;6.60;;;1.20;;
15077;SDS011;7638;49.760;8.646;2023-12-22T05:20:40;1.43;;;0.70;;
15077;SDS011;7638;49.760;8.646;2023-12-22T05:23:06;1.60;;;0.87;;
15077;SDS011;7638;49.760;8.646;2023-12-22T05:25:32;2.47;;;0.90;;
15077;SDS011;7638;49.760;8.646;2023-12-22T05:27:58;1.53;;;0.90;;
15077;SDS011;7638;49.760;8.646;2023-12-22T05:30:24;2.77;;;0.80;;
15077;SDS011;7638;49.760;8.646;2023-12-22T05:32:50;1.10;;;0.80;;
15077;SDS011;7638;49.760;8.646;2023-12-22T05:35:16;3.10;;;1.00;;
15077;SDS011;7638;49.760;8.646;2023-12-22T05:37:42;0.70;;;0.70;;
15077;SDS011;7638;49.760;8.646;2023-12-22T05:40:08;10.87;;;2.30;;
15077;SDS011;7638;49.760;8.646;2023-12-22T05:42:34;1.63;;;0.80;;
15077;SDS011;7638;49.760;8.646;2023-12-22T05:45:00;3.73;;;0.70;;
15077;SDS011;7638;49.760;8.646;2023-12-22T05:47:26;3.97;;;0.90;;
15077;SDS011;7638;49.760;8.646;2023-12-22T05:49:52;2.60;;;0.90;;
15077;SDS011;7638;49.760;8.646;2023-12-22T05:52:18;3.60;;;1.07;;
15077;SDS011;7638;49.760;8.646;2023-12-22T05:54:44;3.33;;;0.87;;
15077;SDS011;7638;49.760;8.646;2023-12-22T05:57:10;2.17;;;0.97;;
15077;SDS011;7638;49.760;8.646;2023-12-22T05:59:37;1.43;;;0.97;;
15077;SDS011;7638;49.760;8.646;2023-12-22T06:02:03;4.33;;;0.83;;
15077;SDS011;7638;49.760;8.646;2023-12-22T06:04:29;4.73;;;1.27;;
15077;SDS011;7638;49.760;8.646;2023-12-22T06:06:55;3.27;;;1.13;;
15077;SDS011;7638;49.760;8.646;2023-12-22T06:09:21;1.30;;;1.20;;
15077;SDS011;7638;49.760;8.646;2023-12-22T06:11:48;2.03;;;1.20;;
15077;SDS011;7638;49.760;8.646;2023-12-22T06:14:14;2.30;;;1.20;;
15077;SDS011;7638;49.760;8.646;2023-12-22T06:16:40;4.47;;;1.20;;
15077;SDS011;7638;49.760;8.646;2023-12-22T06:19:06;4.13;;;1.43;;
15077;SDS011;7638;49.760;8.646;2023-12-22T06:21:31;3.50;;;1.50;;
15077;SDS011;7638;49.760;8.646;2023-12-22T06:23:57;2.60;;;1.33;;
15077;SDS011;7638;49.760;8.646;2023-12-22T06:26:23;4.43;;;1.10;;
15077;SDS011;7638;49.760;8.646;2023-12-22T06:28:49;5.70;;;0.80;;
15077;SDS011;7638;49.760;8.646;2023-12-22T06:31:16;3.10;;;1.20;;
15077;SDS011;7638;49.760;8.646;2023-12-22T06:33:48;1.27;;;0.80;;
15077;SDS011;7638;49.760;8.646;2023-12-22T06:36:21;3.37;;;1.10;;
15077;SDS011;7638;49.760;8.646;2023-12-22T06:38:48;1.50;;;0.90;;
15077;SDS011;7638;49.760;8.646;2023-12-22T06:41:32;2.70;;;1.13;;
15077;SDS011;7638;49.760;8.646;2023-12-22T06:43:58;1.03;;;0.80;;
15077;SDS011;7638;49.760;8.646;2023-12-22T06:46:27;3.53;;;1.17;;
15077;SDS011;7638;49.760;8.646;2023-12-22T06:48:54;4.23;;;0.93;;
15077;SDS011;7638;49.760;8.646;2023-12-22T06:53:47;4.47;;;0.90;;
15077;SDS011;7638;49.760;8.646;2023-12-22T06:56:20;1.07;;;0.87;;
15077;SDS011;7638;49.760;8.646;2023-12-22T06:58:46;2.37;;;1.20;;
15077;SDS011;7638;49.760;8.646;2023-12-22T07:01:25;4.70;;;1.50;;
15077;SDS011;7638;49.760;8.646;2023-12-22T07:03:51;3.40;;;0.87;;
15077;SDS011;7638;49.760;8.646;2023-12-22T07:06:17;3.90;;;1.30;;
15077;SDS011;7638;49.760;8.646;2023-12-22T07:08:43;5.57;;;1.50;;
15077;SDS011;7638;49.760;8.646;2023-12-22T07:11:22;5.20;;;1.53;;
15077;SDS011;7638;49.760;8.646;2023-12-22T07:13:48;7.00;;;1.27;;
15077;SDS011;7638;49.760;8.646;2023-12-22T07:16:14;5.47;;;1.43;;
15077;SDS011;7638;49.760;8.646;2023-12-22T07:18:40;4.40;;;1.67;;
15077;SDS011;7638;49.760;8.646;2023-12-22T07:21:06;4.27;;;1.40;;
15077;SDS011;7638;49.760;8.646;2023-12-22T07:23:32;3.63;;;1.50;;
15077;SDS011;7638;49.760;8.646;2023-12-22T07:25:58;2.67;;;1.30;;
15077;SDS011;7638;49.760;8.646;2023-12-22T07:28:24;5.03;;;1.30;;
15077;SDS011;7638;49.760;8.646;2023-12-22T07:30:51;10.93;;;2.23;;
15077;SDS011;7638;49.760;8.646;2023-12-22T07:33:18;3.80;;;1.73;;
15077;SDS011;7638;49.760;8.646;2023-12-22T07:35:44;2.73;;;1.37;;
15077;SDS011;7638;49.760;8.646;2023-12-22T07:38:10;7.13;;;1.50;;
15077;SDS011;7638;49.760;8.646;2023-12-22T07:40:36;7.37;;;1.63;;
15077;SDS011;7638;49.760;8.646;2023-12-22T07:43:02;9.83;;;2.07;;
15077;SDS011;7638;49.760;8.646;2023-12-22T07:45:28;11.33;;;2.03;;
15077;SDS011;7638;49.760;8.646;2023-12-22T07:47:54;4.37;;;1.57;;
15077;SDS011;7638;49.760;8.646;2023-12-22T07:50:20;9.83;;;1.53;;
15077;SDS011;7638;49.760;8.646;2023-12-22T07:52:46;6.53;;;1.60;;
15077;SDS011;7638;49.760;8.646;2023-12-22T07:55:12;4.23;;;1.07;;
15077;SDS011;7638;49.760;8.646;2023-12-22T07:57:38;6.70;;;1.43;;
15077;SDS011;7638;49.760;8.646;2023-12-22T08:00:04;2.90;;;1.27;;
15077;SDS011;7638;49.760;8.646;2023-12-22T08:02:31;7.10;;;1.93;;
15077;SDS011;7638;49.760;8.646;2023-12-22T08:04:57;5.70;;;1.30;;
15077;SDS011;7638;49.760;8.646;2023-12-22T08:07:23;3.60;;;1.13;;
15077;SDS011;7638;49.760;8.646;2023-12-22T08:09:49;6.10;;;1.80;;
15077;SDS011;7638;49.760;8.646;2023-12-22T08:12:15;3.73;;;1.60;;
15077;SDS011;7638;49.760;8.646;2023-12-22T08:14:41;4.63;;;1.40;;
15077;SDS011;7638;49.760;8.646;2023-12-22T08:17:07;2.57;;;1.57;;
15077;SDS011;7638;49.760;8.646;2023-12-22T08:19:33;5.93;;;1.40;;
15077;SDS011;7638;49.760;8.646;2023-12-22T08:21:58;2.90;;;1.10;;
15077;SDS011;7638;49.760;8.646;2023-12-22T08:24:25;6.60;;;1.30;;
15077;SDS011;7638;49.760;8.646;2023-12-22T08:26:52;2.63;;;1.03;;
15077;SDS011;7638;49.760;8.646;2023-12-22T08:29:18;3.47;;;1.17;;
15077;SDS011;7638;49.760;8.646;2023-12-22T08:31:44;1.43;;;0.80;;
15077;SDS011;7638;49.760;8.646;2023-12-22T08:34:10;4.57;;;1.27;;
15077;SDS011;7638;49.760;8.646;2023-12-22T08:36:36;1.23;;;0.73;;
15077;SDS011;7638;49.760;8.646;2023-12-22T08:39:02;4.47;;;1.10;;
15077;SDS011;7638;49.760;8.646;2023-12-22T08:41:30;5.33;;;0.80;;
15077;SDS011;7638;49.760;8.646;2023-12-22T08:44:01;1.90;;;0.57;;
15077;SDS011;7638;49.760;8.646;2023-12-22T08:46:27;1.20;;;0.57;;
15077;SDS011;7638;49.760;8.646;2023-12-22T08:48:53;1.00;;;0.80;;
15077;SDS011;7638;49.760;8.646;2023-12-22T08:51:18;2.97;;;1.00;;
15077;SDS011;7638;49.760;8.646;2023-12-22T08:53:44;3.23;;;0.90;;
15077;SDS011;7638;49.760;8.646;2023-12-22T08:56:10;4.77;;;1.10;;
15077;SDS011;7638;49.760;8.646;2023-12-22T08:58:36;2.73;;;0.87;;
15077;SDS011;7638;49.760;8.646;2023-12-22T09:01:02;3.03;;;1.47;;
15077;SDS011;7638;49.760;8.646;2023-12-22T09:03:29;3.40;;;1.57;;
15077;SDS011;7638;49.760;8.646;2023-12-22T09:05:55;3.00;;;0.80;;
15077;SDS011;7638;49.760;8.646;2023-12-22T09:08:21;4.37;;;1.20;;
15077;SDS011;7638;49.760;8.646;2023-12-22T09:10:47;2.27;;;1.10;;
15077;SDS011;7638;49.760;8.646;2023-12-22T09:13:14;3.53;;;1.47;;
15077;SDS011;7638;49.760;8.646;2023-12-22T09:15:40;2.63;;;0.90;;
15077;SDS011;7638;49.760;8.646;2023-12-22T09:18:06;2.77;;;0.83;;
15077;SDS011;7638;49.760;8.646;2023-12-22T09:20:32;4.53;;;1.23;;
15077;SDS011;7638;49.760;8.646;2023-12-22T09:22:58;1.43;;;0.70;;
15077;SDS011;7638;49.760;8.646;2023-12-22T09:25:24;0.87;;;0.80;;
15077;SDS011;7638;49.760;8.646;2023-12-22T09:27:51;3.20;;;1.30;;
15077;SDS011;7638;49.760;8.646;2023-12-22T09:30:17;1.50;;;1.10;;
15077;SDS011;7638;49.760;8.646;2023-12-22T09:32:43;2.30;;;1.10;;
15077;SDS011;7638;49.760;8.646;2023-12-22T09:35:09;8.57;;;1.40;;
15077;SDS011;7638;49.760;8.646;2023-12-22T09:37:35;10.47;;;1.93;;
15077;SDS011;7638;49.760;8.646;2023-12-22T09:40:00;6.50;;;1.50;;
15077;SDS011;7638;49.760;8.646;2023-12-22T09:42:26;2.93;;;1.00;;
15077;SDS011;7638;49.760;8.646;2023-12-22T09:44:53;5.80;;;1.47;;
15077;SDS011;7638;49.760;8.646;2023-12-22T09:47:19;6.70;;;1.60;;
15077;SDS011;7638;49.760;8.646;2023-12-22T09:49:46;7.37;;;1.40;;
15077;SDS011;7638;49.760;8.646;2023-12-22T09:52:13;3.77;;;1.40;;
15077;SDS011;7638;49.760;8.646;2023-12-22T09:54:39;7.97;;;1.87;;
15077;SDS011;7638;49.760;8.646;2023-12-22T09:57:05;7.63;;;1.50;;
15077;SDS011;7638;49.760;8.646;2023-12-22T09:59:32;7.20;;;2.03;;
15077;SDS011;7638;49.760;8.646;2023-12-22T10:01:59;8.57;;;1.97;;
15077;SDS011;7638;49.760;8.646;2023-12-22T10:04:25;6.77;;;1.63;;
15077;SDS011;7638;49.760;8.646;2023-12-22T10:06:51;11.03;;;2.10;;
15077;SDS011;7638;49.760;8.646;2023-12-22T10:09:19;8.63;;;1.57;;
15077;SDS011;7638;49.760;8.646;2023-12-22T10:11:45;13.70;;;2.23;;
15077;SDS011;7638;49.760;8.646;2023-12-22T10:14:14;8.40;;;1.93;;
15077;SDS011;7638;49.760;8.646;2023-12-22T10:16:47;6.17;;;1.60;;
15077;SDS011;7638;49.760;8.646;2023-12-22T10:19:13;4.20;;;1.13;;
15077;SDS011;7638;49.760;8.646;2023-12-22T10:21:40;7.80;;;2.20;;
15077;SDS011;7638;49.760;8.646;2023-12-22T10:24:06;5.83;;;2.00;;
15077;SDS011;7638;49.760;8.646;2023-12-22T10:26:32;6.40;;;2.03;;
15077;SDS011;7638;49.760;8.646;2023-12-22T10:28:58;7.17;;;1.93;;
15077;SDS011;7638;49.760;8.646;2023-12-22T10:31:24;3.43;;;1.60;;
15077;SDS011;7638;49.760;8.646;2023-12-22T10:33:50;12.03;;;2.83;;
15077;SDS011;7638;49.760;8.646;2023-12-22T10:36:16;9.27;;;2.43;;
15077;SDS011;7638;49.760;8.646;2023-12-22T10:38:42;13.53;;;3.07;;
15077;SDS011;7638;49.760;8.646;2023-12-22T10:41:09;12.30;;;2.40;;
15077;SDS011;7638;49.760;8.646;2023-12-22T10:43:39;10.43;;;2.23;;
15077;SDS011;7638;49.760;8.646;2023-12-22T10:46:05;9.33;;;2.47;;
15077;SDS011;7638;49.760;8.646;2023-12-22T10:48:33;12.57;;;2.73;;
15077;SDS011;7638;49.760;8.646;2023-12-22T10:50:59;15.87;;;2.83;;
15077;SDS011;7638;49.760;8.646;2023-12-22T10:53:24;11.90;;;1.93;;
15077;SDS011;7638;49.760;8.646;2023-12-22T10:55:51;8.47;;;2.00;;
15077;SDS011;7638;49.760;8.646;2023-12-22T10:58:17;8.87;;;2.17;;
15077;SDS011;7638;49.760;8.646;2023-12-22T11:00:47;9.17;;;2.17;;
15077;SDS011;7638;49.760;8.646;2023-12-22T11:03:16;8.63;;;2.03;;
15077;SDS011;7638;49.760;8.646;2023-12-22T11:05:46;14.17;;;3.10;;
15077;SDS011;7638;49.760;8.646;2023-12-22T11:08:12;10.20;;;2.27;;
15077;SDS011;7638;49.760;8.646;2023-12-22T11:10:40;6.87;;;1.90;;
15077;SDS011;7638;49.760;8.646;2023-12-22T11:13:08;13.07;;;2.20;;
15077;SDS011;7638;49.760;8.646;2023-12-22T11:15:35;4.73;;;2.47;;
15077;SDS011;7638;49.760;8.646;2023-12-22T11:18:01;7.53;;;2.60;;
15077;SDS011;7638;49.760;8.646;2023-12-22T11:20:27;8.07;;;2.30;;
15077;SDS011;7638;49.760;8.646;2023-12-22T11:22:57;6.60;;;2.17;;
15077;SDS011;7638;49.760;8.646;2023-12-22T11:25:23;7.63;;;2.70;;
15077;SDS011;7638;49.760;8.646;2023-12-22T11:27:50;11.27;;;2.47;;
15077;SDS011;7638;49.760;8.646;2023-12-22T11:30:18;8.37;;;2.30;;
15077;SDS011;7638;49.760;8.646;2023-12-22T11:32:45;11.77;;;2.67;;
15077;SDS011;7638;49.760;8.646;2023-12-22T11:35:12;12.67;;;2.60;;
15077;SDS011;7638;49.760;8.646;2023-12-22T11:37:39;13.80;;;2.93;;
15077;SDS011;7638;49.760;8.646;2023-12-22T11:40:05;7.90;;;2.60;;
15077;SDS011;7638;49.760;8.646;2023-12-22T11:42:33;7.37;;;2.50;;
15077;SDS011;7638;49.760;8.646;2023-12-22T11:45:01;5.27;;;2.90;;
15077;SDS011;7638;49.760;8.646;2023-12-22T11:47:27;10.23;;;2.50;;
15077;SDS011;7638;49.760;8.646;2023-12-22T11:49:53;17.17;;;3.50;;
15077;SDS011;7638;49.760;8.646;2023-12-22T11:52:24;4.20;;;2.20;;
15077;SDS011;7638;49.760;8.646;2023-12-22T11:54:51;14.80;;;3.40;;
15077;SDS011;7638;49.760;8.646;2023-12-22T11:57:28;6.93;;;2.07;;
15077;SDS011;7638;49.760;8.646;2023-12-22T11:59:58;10.03;;;1.93;;
15077;SDS011;7638;49.760;8.646;2023-12-22T12:02:24;6.43;;;2.00;;
15077;SDS011;7638;49.760;8.646;2023-12-22T12:04:51;16.07;;;2.07;;
15077;SDS011;7638;49.760;8.646;2023-12-22T12:10:04;11.30;;;2.93;;
15077;SDS011;7638;49.760;8.646;2023-12-22T12:12:30;5.77;;;2.07;;
15077;SDS011;7638;49.760;8.646;2023-12-22T12:14:59;12.57;;;2.50;;
15077;SDS011;7638;49.760;8.646;2023-12-22T12:17:27;6.63;;;2.37;;
15077;SDS011;7638;49.760;8.646;2023-12-22T12:19:54;8.43;;;2.57;;
15077;SDS011;7638;49.760;8.646;2023-12-22T12:22:21;10.03;;;2.40;;
15077;SDS011;7638;49.760;8.646;2023-12-22T12:24:49;10.57;;;2.97;;
15077;SDS011;7638;49.760;8.646;2023-12-22T12:27:19;5.13;;;2.07;;
15077;SDS011;7638;49.760;8.646;2023-12-22T12:29:45;5.40;;;1.97;;
15077;SDS011;7638;49.760;8.646;2023-12-22T12:32:13;7.90;;;2.27;;
15077;SDS011;7638;49.760;8.646;2023-12-22T12:34:39;6.57;;;2.07;;
15077;SDS011;7638;49.760;8.646;2023-12-22T12:37:05;7.33;;;2.40;;
15077;SDS011;7638;49.760;8.646;2023-12-22T12:39:31;9.10;;;2.23;;
15077;SDS011;7638;49.760;8.646;2023-12-22T12:42:00;8.50;;;2.13;;
15077;SDS011;7638;49.760;8.646;2023-12-22T12:44:29;10.40;;;2.27;;
15077;SDS011;7638;49.760;8.646;2023-12-22T12:46:58;10.67;;;2.43;;
15077;SDS011;7638;49.760;8.646;2023-12-22T12:49:25;7.90;;;1.90;;
15077;SDS011;7638;49.760;8.646;2023-12-22T12:51:54;4.03;;;1.30;;
15077;SDS011;7638;49.760;8.646;2023-12-22T12:54:20;6.17;;;1.70;;
15077;SDS011;7638;49.760;8.646;2023-12-22T12:56:46;4.83;;;1.53;;
15077;SDS011;7638;49.760;8.646;2023-12-22T12:59:14;7.37;;;1.23;;
15077;SDS011;7638;49.760;8.646;2023-12-22T13:01:43;1.60;;;1.17;;
15077;SDS011;7638;49.760;8.646;2023-12-22T13:04:10;2.37;;;1.17;;
15077;SDS011;7638;49.760;8.646;2023-12-22T13:06:47;3.63;;;1.43;;
15077;SDS011;7638;49.760;8.646;2023-12-22T13:09:13;3.70;;;1.30;;
15077;SDS011;7638;49.760;8.646;2023-12-22T13:11:40;4.97;;;1.20;;
15077;SDS011;7638;49.760;8.646;2023-12-22T13:14:09;2.37;;;0.90;;
15077;SDS011;7638;49.760;8.646;2023-12-22T13:16:35;1.70;;;1.10;;
15077;SDS011;7638;49.760;8.646;2023-12-22T13:19:02;2.10;;;0.90;;
15077;SDS011;7638;49.760;8.646;2023-12-22T13:21:28;1.90;;;1.30;;
15077;SDS011;7638;49.760;8.646;2023-12-22T13:26:36;1.43;;;1.00;;
15077;SDS011;7638;49.760;8.646;2023-12-22T13:29:02;1.00;;;0.90;;
15077;SDS011;7638;49.760;8.646;2023-12-22T13:31:29;4.07;;;0.90;;
15077;SDS011;7638;49.760;8.646;2023-12-22T13:33:55;2.13;;;1.13;;
15077;SDS011;7638;49.760;8.646;2023-12-22T13:36:21;1.47;;;0.80;;
15077;SDS011;7638;49.760;8.646;2023-12-22T13:38:47;1.40;;;0.87;;
15077;SDS011;7638;49.760;8.646;2023-12-22T13:41:14;2.40;;;1.13;;
15077;SDS011;7638;49.760;8.646;2023-12-22T13:43:40;1.87;;;1.00;;
15077;SDS011;7638;49.760;8.646;2023-12-22T13:46:06;0.97;;;0.83;;
15077;SDS011;7638;49.760;8.646;2023-12-22T13:48:33;1.40;;;0.73;;
15077;SDS011;7638;49.760;8.646;2023-12-22T13:50:59;0.80;;;0.80;;
15077;SDS011;7638;49.760;8.646;2023-12-22T13:53:26;2.67;;;1.33;;
15077;SDS011;7638;49.760;8.646;2023-12-22T13:55:58;3.07;;;0.80;;
15077;SDS011;7638;49.760;8.646;2023-12-22T13:58:24;1.03;;;0.90;;
15077;SDS011;7638;49.760;8.646;2023-12-22T14:00:51;0.97;;;0.60;;
15077;SDS011;7638;49.760;8.646;2023-12-22T14:03:17;1.80;;;0.60;;
15077;SDS011;7638;49.760;8.646;2023-12-22T14:05:46;1.50;;;0.50;;
15077;SDS011;7638;49.760;8.646;2023-12-22T14:08:14;2.80;;;1.07;;
15077;SDS011;7638;49.760;8.646;2023-12-22T14:10:44;1.33;;;0.80;;
15077;SDS011;7638;49.760;8.646;2023-12-22T14:13:11;1.60;;;0.70;;
15077;SDS011;7638;49.760;8.646;2023-12-22T14:15:36;0.87;;;0.60;;
15077;SDS011;7638;49.760;8.646;2023-12-22T14:18:02;0.93;;;0.73;;
15077;SDS011;7638;49.760;8.646;2023-12-22T14:20:28;2.43;;;1.10;;
15077;SDS011;7638;49.760;8.646;2023-12-22T14:22:54;1.73;;;0.93;;
15077;SDS011;7638;49.760;8.646;2023-12-22T14:25:20;1.33;;;0.87;;
15077;SDS011;7638;49.760;8.646;2023-12-22T14:27:46;0.60;;;0.60;;
15077;SDS011;7638;49.760;8.646;2023-12-22T14:30:12;2.87;;;1.00;;
15077;SDS011;7638;49.760;8.646;2023-12-22T14:32:38;4.23;;;1.20;;
15077;SDS011;7638;49.760;8.646;2023-12-22T14:35:04;0.60;;;0.60;;
15077;SDS011;7638;49.760;8.646;2023-12-22T14:37:30;1.63;;;0.93;;
15077;SDS011;7638;49.760;8.646;2023-12-22T14:39:56;1.37;;;0.80;;
15077;SDS011;7638;49.760;8.646;2023-12-22T14:42:22;1.27;;;0.80;;
15077;SDS011;7638;49.760;8.646;2023-12-22T14:44:48;0.60;;;0.60;;
15077;SDS011;7638;49.760;8.646;2023-12-22T14:47:14;1.03;;;0.80;;
15077;SDS011;7638;49.760;8.646;2023-12-22T14:49:40;0.97;;;0.83;;
15077;SDS011;7638;49.760;8.646;2023-12-22T14:52:06;1.30;;;0.70;;
15077;SDS011;7638;49.760;8.646;2023-12-22T14:54:33;1.00;;;0.60;;
15077;SDS011;7638;49.760;8.646;2023-12-22T14:56:59;1.27;;;0.83;;
15077;SDS011;7638;49.760;8.646;2023-12-22T14:59:25;1.07;;;0.87;;
15077;SDS011;7638;49.760;8.646;2023-12-22T15:01:52;1.73;;;1.10;;
15077;SDS011;7638;49.760;8.646;2023-12-22T15:04:18;1.67;;;0.93;;
15077;SDS011;7638;49.760;8.646;2023-12-22T15:06:45;1.23;;;0.70;;